Sound Reliance — WXAE — position and weather

sailwx.info

Track history (hours):
 
Tides and Currents Weather Stations Pressure Air Temp Water Temp Dewpoint Dewpoint Depression Visibility Wind Speed Wind Dir Waves Ship Positions

Sound Reliance

Owner: Intrepid Ship Management, Seattle, WA. More information available from US FCC via Universal Licensing System and Coast Guard Vessel Documentation Center.

Last reported at 2017-Oct-17 03:53 UTC. Time now 2017-Oct-17 04:31 UTC.
Position N 48°35' W 122°33'.

Type: Ship. MMSI: 338085216.

Date/timePositionNaut miles runAvg speedWind from/ knotsBaromVisibWave heightAir tempDewpointWater temp
2017-Oct-17 03:53N 48°35' W 122°33'0 0.0
2017-Oct-17 03:16N 48°35' W 122°33'0 0.0
2017-Oct-17 03:00N 48°35' W 122°33'0 0.0
2017-Oct-17 02:31N 48°35' W 122°33'0 0.0
2017-Oct-17 02:00N 48°35' W 122°33'0 0.0
2017-Oct-17 01:31N 48°35' W 122°33'0 0.0
2017-Oct-17 00:59N 48°35' W 122°33'0 0.0
2017-Oct-17 00:29N 48°35' W 122°33'0 0.0
2017-Oct-17 00:00N 48°35' W 122°33'0 0.0
2017-Oct-16 23:29N 48°35' W 122°33'0 0.1
2017-Oct-16 23:01N 48°35' W 122°33'0 0.3
2017-Oct-16 22:30N 48°36' W 122°32'0 0.1
2017-Oct-16 22:01N 48°35' W 122°32'0 0.0
2017-Oct-16 21:30N 48°35' W 122°32'0 0.1
2017-Oct-16 21:00N 48°36' W 122°32'0 0.0
2017-Oct-16 20:31N 48°35' W 122°32'0 0.0
2017-Oct-16 20:01N 48°36' W 122°32'0 0.1
2017-Oct-16 19:30N 48°36' W 122°32'0 0.1
2017-Oct-16 19:01N 48°36' W 122°33'1 2.5
2017-Oct-16 18:30N 48°37' W 122°34'4 8.7
2017-Oct-16 18:00N 48°35' W 122°40'612.1
2017-Oct-16 17:30N 48°30' W 122°44'611.3
2017-Oct-16 17:00N 48°24' W 122°48'611.1
2017-Oct-16 16:29N 48°21' W 122°55'611.8
2017-Oct-16 16:00N 48°18' W 123°02'611.2
2017-Oct-16 15:31N 48°15' W 123°09'510.5
2017-Oct-16 15:00N 48°12' W 123°16'510.1
2017-Oct-16 14:30N 48°10' W 123°22'8 8.1
2017-Oct-16 13:30N 48°13' W 123°34'4 7.5
2017-Oct-16 13:01N 48°13' W 123°39'4 7.1
2017-Oct-16 12:31N 48°13' W 123°45'4 7.3
2017-Oct-16 11:58N 48°13' W 123°50'3 7.0
2017-Oct-16 11:29N 48°13' W 123°56'5 7.9
2017-Oct-16 10:55N 48°15' W 124°02'3 8.1
2017-Oct-16 10:29N 48°17' W 124°07'4 8.0
2017-Oct-16 10:01N 48°18' W 124°12'4 8.0
2017-Oct-16 09:29N 48°20' W 124°17'4 8.3
2017-Oct-16 09:00N 48°22' W 124°23'4 8.2
2017-Oct-16 08:31N 48°23' W 124°28'4 8.1
2017-Oct-16 08:00N 48°25' W 124°34'4 8.2
2017-Oct-16 07:31N 48°27' W 124°40'4 8.2
2017-Oct-16 07:01N 48°28' W 124°45'5 9.0
2017-Oct-16 06:30N 48°28' W 124°52'5 9.1
2017-Oct-16 05:55N 48°28' W 125°00'510.9
2017-Oct-16 05:27N 48°24' W 125°04'69 8.0
2017-Oct-15 20:51N 47°15' W 125°07'3 7.5
2017-Oct-15 20:29N 47°12' W 125°06'4 7.7
2017-Oct-15 20:01N 47°09' W 125°04'7 7.7
2017-Oct-15 19:04N 47°02' W 124°60'2 7.8
2017-Oct-15 18:52N 47°00' W 124°59'3 7.9
2017-Oct-15 18:30N 46°58' W 124°57'4 7.8
2017-Oct-15 18:01N 46°54' W 124°56'4 7.7
2017-Oct-15 17:31N 46°51' W 124°54'4 8.1
2017-Oct-15 17:00N 46°47' W 124°52'4 8.2
2017-Oct-15 16:31N 46°43' W 124°50'4 8.2
2017-Oct-15 16:01N 46°39' W 124°48'4 8.1
2017-Oct-15 15:31N 46°35' W 124°46'4 8.1
2017-Oct-15 15:01N 46°31' W 124°44'9 8.3
2017-Oct-15 13:54N 46°23' W 124°38'511.7
2017-Oct-15 13:31N 46°20' W 124°33'611.7
2017-Oct-15 13:01N 46°17' W 124°25'612.6
2017-Oct-15 12:31N 46°14' W 124°18'611.9
2017-Oct-15 12:01N 46°13' W 124°09'611.9
2017-Oct-15 11:31N 46°15' W 124°01'612.7
2017-Oct-15 11:00N 46°11' W 123°54'5 9.5
2017-Oct-15 10:31N 46°13' W 123°47'713.9
2017-Oct-15 10:01N 46°16' W 123°38'713.4
2017-Oct-15 09:30N 46°16' W 123°29'611.9
2017-Oct-15 09:00N 46°11' W 123°26'611.7
2017-Oct-15 08:30N 46°09' W 123°18'612.3
2017-Oct-15 08:00N 46°11' W 123°10'611.4
2017-Oct-15 07:30N 46°09' W 123°02'611.3
2017-Oct-15 07:00N 46°06' W 122°56'5 9.9
2017-Oct-15 06:30N 46°01' W 122°52'611.3
2017-Oct-15 06:00N 45°56' W 122°48'611.7
2017-Oct-15 05:30N 45°51' W 122°47'612.1
2017-Oct-15 05:00N 45°45' W 122°46'612.1
2017-Oct-15 04:30N 45°39' W 122°47'4 7.4
2017-Oct-15 04:00N 45°35' W 122°46'1 2.6
2017-Oct-15 03:31N 45°34' W 122°44'0 0.0
2017-Oct-15 03:01N 45°34' W 122°44'0 0.0
2017-Oct-15 02:30N 45°34' W 122°44'0 0.0
2017-Oct-15 01:41N 45°34' W 122°44'0 0.0
2017-Oct-15 01:20N 45°34' W 122°44'0 0.1
2017-Oct-15 01:00N 45°34' W 122°44'0 0.1
2017-Oct-15 00:31N 45°34' W 122°44'0 0.0
2017-Oct-15 00:01N 45°34' W 122°44'0 0.0
2017-Oct-14 23:30N 45°34' W 122°44'0 0.1
2017-Oct-14 22:53N 45°34' W 122°44'0 0.1
2017-Oct-14 22:31N 45°34' W 122°44'0 0.1
2017-Oct-14 22:01N 45°34' W 122°44'0 0.1
2017-Oct-14 21:30N 45°34' W 122°44'0 0.1
2017-Oct-14 21:01N 45°34' W 122°44'0 0.1
2017-Oct-14 20:30N 45°34' W 122°44'0 0.0
2017-Oct-14 20:01N 45°34' W 122°44'0 0.1
2017-Oct-14 19:30N 45°34' W 122°44'0 0.0
2017-Oct-14 19:01N 45°34' W 122°44'0 0.0
2017-Oct-14 18:30N 45°34' W 122°44'0 0.1
2017-Oct-14 18:00N 45°34' W 122°44'0 0.1
2017-Oct-14 17:31N 45°34' W 122°44'0 0.1
2017-Oct-14 17:01N 45°34' W 122°44'0 0.0
2017-Oct-14 16:31N 45°34' W 122°44'0 0.1
2017-Oct-14 16:01N 45°34' W 122°44'0 0.0
2017-Oct-14 15:31N 45°34' W 122°44'0 0.1
2017-Oct-14 15:00N 45°34' W 122°44'0 0.0
2017-Oct-14 14:30N 45°34' W 122°44'0 0.1
2017-Oct-14 14:00N 45°34' W 122°44'0 0.0
2017-Oct-14 13:30N 45°34' W 122°44'0 0.0
2017-Oct-14 13:00N 45°34' W 122°44'0 0.1
2017-Oct-14 12:30N 45°34' W 122°44'0 0.0
2017-Oct-14 12:01N 45°34' W 122°44'0 0.0
2017-Oct-14 11:31N 45°34' W 122°44'0 0.0
2017-Oct-14 11:00N 45°34' W 122°44'0 0.0
2017-Oct-14 10:30N 45°34' W 122°44'0 0.1
2017-Oct-14 10:00N 45°34' W 122°44'0 0.0
2017-Oct-14 09:30N 45°34' W 122°44'0 0.1
2017-Oct-14 09:01N 45°34' W 122°44'0 0.0
2017-Oct-14 08:30N 45°34' W 122°44'0 0.0
2017-Oct-14 08:00N 45°34' W 122°44'0 0.0
2017-Oct-14 07:30N 45°34' W 122°44'0 0.7
2017-Oct-14 07:01N 45°34' W 122°44'3 6.6
2017-Oct-14 06:30N 45°37' W 122°47'4 7.8
2017-Oct-14 06:00N 45°41' W 122°47'510.8
2017-Oct-14 05:30N 45°46' W 122°46'510.5
2017-Oct-14 05:00N 45°51' W 122°47'610.8
2017-Oct-14 04:27N 45°57' W 122°49'511.0
2017-Oct-14 04:00N 46°01' W 122°52'6 9.9
2017-Oct-14 03:21N 46°06' W 122°58'410.8
2017-Oct-14 03:01N 46°09' W 123°02'510.7
2017-Oct-14 02:30N 46°11' W 123°09'510.8
2017-Oct-14 02:00N 46°09' W 123°16'510.3
2017-Oct-14 01:30N 46°09' W 123°24'5 9.7
2017-Oct-14 01:00N 46°14' W 123°26'5 9.2
2017-Oct-14 00:31N 46°16' W 123°32'611.2
2017-Oct-14 00:00N 46°15' W 123°40'611.2
2017-Oct-13 23:31N 46°13' W 123°47'5 9.8
2017-Oct-13 23:00N 46°11' W 123°54'510.8
2017-Oct-13 22:30N 46°15' W 123°60'5 9.1
2017-Oct-13 22:00N 46°14' W 124°06'7 9.5
2017-Oct-13 21:15N 46°10' W 124°15'2 6.6
2017-Oct-13 21:00N 46°11' W 124°17'4 7.9
2017-Oct-13 20:30N 46°13' W 124°23'510.0
2017-Oct-13 20:00N 46°15' W 124°28'510.6
2017-Oct-13 19:30N 46°19' W 124°35'5 9.7
2017-Oct-13 19:01N 46°22' W 124°39'6 9.8
2017-Oct-13 18:21N 46°29' W 124°42'3 9.9
2017-Oct-13 18:00N 46°32' W 124°44'810.4
2017-Oct-13 17:14N 46°39' W 124°48'210.6
2017-Oct-13 17:00N 46°42' W 124°49'510.1
2017-Oct-13 16:30N 46°46' W 124°51'510.0
2017-Oct-13 16:00N 46°51' W 124°54'510.4
2017-Oct-13 15:30N 46°56' W 124°57'9510.6
2017-Oct-13 06:33N 48°31' W 125°00'112.1
2017-Oct-13 06:28N 48°31' W 124°59'612.4
2017-Oct-13 06:00N 48°31' W 124°50'611.9
2017-Oct-13 05:30N 48°30' W 124°41'611.9
2017-Oct-13 05:00N 48°27' W 124°33'611.9
2017-Oct-13 04:30N 48°25' W 124°25'611.5
2017-Oct-13 04:00N 48°23' W 124°17'611.8
2017-Oct-13 03:30N 48°20' W 124°09'1011.4
2017-Oct-13 02:36N 48°17' W 123°54'111.4
2017-Oct-13 02:30N 48°17' W 123°52'612.5
2017-Oct-13 02:00N 48°16' W 123°43'712.9
2017-Oct-13 01:30N 48°15' W 123°33'612.1
2017-Oct-13 00:59N 48°12' W 123°25'4 8.9
2017-Oct-13 00:30N 48°10' W 123°20'713.0
2017-Oct-12 23:56N 48°14' W 123°11'612.7
2017-Oct-12 23:25N 48°18' W 123°03'512.6
2017-Oct-12 23:00N 48°21' W 122°57'612.7
2017-Oct-12 22:30N 48°25' W 122°49'612.3
2017-Oct-12 22:00N 48°30' W 122°45'612.5
2017-Oct-12 21:30N 48°36' W 122°45'611.6
2017-Oct-12 20:59N 48°42' W 122°44'511.2
2017-Oct-12 20:30N 48°48' W 122°44'2 0.3
2017-Oct-12 13:33N 48°50' W 122°43'0 0.0
2017-Oct-12 13:09N 48°50' W 122°43'0 0.0
2017-Oct-12 08:03N 48°50' W 122°43'0 0.0
2017-Oct-12 05:03N 48°50' W 122°43'0 0.0
2017-Oct-12 02:33N 48°50' W 122°43'0 0.0
2017-Oct-12 02:30N 48°50' W 122°43'0 0.0
2017-Oct-12 01:57N 48°50' W 122°43'0 0.0
2017-Oct-12 01:03N 48°50' W 122°43'0 0.0
2017-Oct-12 00:33N 48°50' W 122°43'0 0.0
2017-Oct-12 00:21N 48°50' W 122°43'0 0.0
2017-Oct-11 23:45N 48°50' W 122°43'0 0.0
2017-Oct-11 23:15N 48°50' W 122°43'0 0.0
2017-Oct-11 22:57N 48°50' W 122°43'0 0.0
2017-Oct-11 22:09N 48°50' W 122°43'0 0.0
2017-Oct-11 21:45N 48°50' W 122°43'0 0.0
2017-Oct-11 21:15N 48°50' W 122°43'0 0.0
2017-Oct-11 20:57N 48°50' W 122°43'0 0.0
2017-Oct-11 20:29N 48°50' W 122°43'0 0.9
2017-Oct-11 19:58N 48°49' W 122°44'4 8.1
2017-Oct-11 19:30N 48°46' W 122°45'612.3
2017-Oct-11 19:00N 48°39' W 122°43'612.4
2017-Oct-11 18:30N 48°33' W 122°45'612.7
2017-Oct-11 18:00N 48°27' W 122°45'713.0
2017-Oct-11 17:29N 48°22' W 122°52'612.8
2017-Oct-11 17:00N 48°19' W 122°60'112 5.4
2017-Oct-10 20:17N 46°60' W 124°59'4 8.5
2017-Oct-10 19:52N 46°57' W 124°57'3 8.3
2017-Oct-10 19:30N 46°54' W 124°55'4 8.4
2017-Oct-10 19:00N 46°50' W 124°54'4 8.1
2017-Oct-10 18:30N 46°46' W 124°52'4 8.0
2017-Oct-10 18:00N 46°42' W 124°50'4 7.8
2017-Oct-10 17:30N 46°39' W 124°48'4 7.8
2017-Oct-10 17:00N 46°35' W 124°46'4 7.6
2017-Oct-10 16:31N 46°31' W 124°44'4 7.6
2017-Oct-10 16:00N 46°28' W 124°42'4 7.7
2017-Oct-10 15:26N 46°24' W 124°40'3 7.2
2017-Oct-10 15:00N 46°21' W 124°38'8 7.8
2017-Oct-10 14:00N 46°17' W 124°28'4 8.0
2017-Oct-10 13:30N 46°15' W 124°23'4 8.0
2017-Oct-10 13:00N 46°13' W 124°18'7 9.5
2017-Oct-10 12:15N 46°14' W 124°08'311.2
2017-Oct-10 12:00N 46°15' W 124°04'5 9.3
2017-Oct-10 11:30N 46°13' W 123°58'5 9.4
2017-Oct-10 11:00N 46°12' W 123°52'5 9.1
2017-Oct-10 10:31N 46°13' W 123°46'510.6
2017-Oct-10 10:00N 46°16' W 123°39'811.3
2017-Oct-10 09:18N 46°16' W 123°27'512.4
2017-Oct-10 08:52N 46°10' W 123°25'512.8
2017-Oct-10 08:30N 46°09' W 123°19'714.1
2017-Oct-10 08:00N 46°11' W 123°10'713.6
2017-Oct-10 07:31N 46°08' W 123°01'713.3
2017-Oct-10 07:00N 46°04' W 122°53'612.9
2017-Oct-10 06:30N 45°59' W 122°50'813.0
2017-Oct-10 05:56N 45°51' W 122°47'512.4
2017-Oct-10 05:30N 45°46' W 122°46'612.8
2017-Oct-10 05:00N 45°40' W 122°46'4 8.3
2017-Oct-10 04:30N 45°36' W 122°46'2 3.3
2017-Oct-10 03:51N 45°34' W 122°44'0 0.1
2017-Oct-10 03:28N 45°34' W 122°44'0 0.0
2017-Oct-10 02:55N 45°34' W 122°44'0 0.0
2017-Oct-10 02:19N 45°34' W 122°44'0 0.0
2017-Oct-10 01:55N 45°34' W 122°44'0 0.1
2017-Oct-10 01:10N 45°34' W 122°44'0 0.2
2017-Oct-10 00:58N 45°34' W 122°44'0 0.0
2017-Oct-10 00:28N 45°34' W 122°44'0 0.1
2017-Oct-09 23:58N 45°34' W 122°44'0 0.1
2017-Oct-09 23:28N 45°34' W 122°44'0 0.1
2017-Oct-09 22:52N 45°34' W 122°44'0 0.1
2017-Oct-09 22:28N 45°34' W 122°44'0 0.0
2017-Oct-09 21:55N 45°34' W 122°44'0 0.1
2017-Oct-09 21:22N 45°34' W 122°44'0 0.1
2017-Oct-09 20:37N 45°34' W 122°44'0 0.3
2017-Oct-09 20:28N 45°34' W 122°44'0 0.0
2017-Oct-09 19:58N 45°34' W 122°44'0 0.1
2017-Oct-09 19:28N 45°34' W 122°44'0 0.1
2017-Oct-09 18:55N 45°34' W 122°44'0 0.0
2017-Oct-09 18:28N 45°34' W 122°44'0 0.0
2017-Oct-09 17:52N 45°34' W 122°44'0 0.0
2017-Oct-09 17:22N 45°34' W 122°44'0 0.1
2017-Oct-09 16:55N 45°34' W 122°44'0 0.1
2017-Oct-09 16:25N 45°34' W 122°44'0 0.0
2017-Oct-09 15:58N 45°34' W 122°44'0 0.1
2017-Oct-09 15:22N 45°34' W 122°44'0 0.0
2017-Oct-09 14:58N 45°34' W 122°44'0 0.1
2017-Oct-09 14:28N 45°34' W 122°44'0 0.1
2017-Oct-09 13:58N 45°34' W 122°44'0 0.1
2017-Oct-09 13:25N 45°34' W 122°44'0 0.1
2017-Oct-09 12:55N 45°34' W 122°44'0 0.1
2017-Oct-09 12:25N 45°34' W 122°44'0 0.1
2017-Oct-09 11:58N 45°34' W 122°44'0 0.0
2017-Oct-09 11:25N 45°34' W 122°44'0 0.0
2017-Oct-09 10:58N 45°34' W 122°44'0 0.0
2017-Oct-09 10:01N 45°34' W 122°44'0 0.0
2017-Oct-09 09:58N 45°34' W 122°44'0 0.0
2017-Oct-09 09:13N 45°34' W 122°44'0 0.0
2017-Oct-09 08:58N 45°34' W 122°44'0 0.0
2017-Oct-09 08:28N 45°34' W 122°44'0 0.0
2017-Oct-09 07:49N 45°34' W 122°44'0 0.0
2017-Oct-09 07:22N 45°34' W 122°44'0 0.0
2017-Oct-09 06:55N 45°34' W 122°44'0 0.0
2017-Oct-09 06:25N 45°34' W 122°44'0 0.1
2017-Oct-09 05:58N 45°34' W 122°44'0 0.1
2017-Oct-09 05:28N 45°34' W 122°44'0 0.0
2017-Oct-09 04:55N 45°34' W 122°44'0 0.0
2017-Oct-09 04:28N 45°34' W 122°44'0 0.1
2017-Oct-09 03:55N 45°34' W 122°44'0 0.1
2017-Oct-09 03:28N 45°34' W 122°44'0 0.0
2017-Oct-09 02:55N 45°34' W 122°44'0 0.0
2017-Oct-09 02:28N 45°34' W 122°44'0 0.0
2017-Oct-09 01:55N 45°34' W 122°44'0 0.0
2017-Oct-09 01:25N 45°34' W 122°44'0 0.0
2017-Oct-09 00:49N 45°34' W 122°44'0 0.0
2017-Oct-09 00:31N 45°34' W 122°44'0 0.0
2017-Oct-08 23:58N 45°34' W 122°44'0 0.1
2017-Oct-08 23:31N 45°34' W 122°44'0 0.0
2017-Oct-08 22:55N 45°34' W 122°44'0 0.1
2017-Oct-08 22:13N 45°34' W 122°44'0 0.0
2017-Oct-08 21:52N 45°34' W 122°44'0 0.0
2017-Oct-08 21:31N 45°34' W 122°44'0 0.0
2017-Oct-08 21:01N 45°34' W 122°44'0 0.0
2017-Oct-08 20:31N 45°34' W 122°44'0 0.0
2017-Oct-08 19:58N 45°34' W 122°44'0 0.0
2017-Oct-08 19:25N 45°34' W 122°44'0 0.0
2017-Oct-08 18:55N 45°34' W 122°44'0 0.0
2017-Oct-08 18:25N 45°34' W 122°44'0 0.0
2017-Oct-08 17:55N 45°34' W 122°44'0 0.0
2017-Oct-08 17:28N 45°34' W 122°44'0 0.0
2017-Oct-08 16:55N 45°34' W 122°44'0 0.0
2017-Oct-08 16:25N 45°34' W 122°44'0 0.0
2017-Oct-08 15:55N 45°34' W 122°44'0 0.0
2017-Oct-08 15:30N 45°34' W 122°44'0 0.0
2017-Oct-08 15:00N 45°34' W 122°44'0 0.0
2017-Oct-08 14:25N 45°34' W 122°44'0 0.4
2017-Oct-08 14:00N 45°34' W 122°44'3 5.6
2017-Oct-08 13:30N 45°36' W 122°47'4 7.8
2017-Oct-08 13:00N 45°40' W 122°46'5 9.7
2017-Oct-08 12:30N 45°45' W 122°46'510.1
2017-Oct-08 12:00N 45°50' W 122°48'510.1
2017-Oct-08 11:30N 45°55' W 122°49'510.0
2017-Oct-08 11:00N 45°59' W 122°51'5 9.9
2017-Oct-08 10:30N 46°04' W 122°53'510.0
2017-Oct-08 10:00N 46°07' W 122°59'510.5
2017-Oct-08 09:30N 46°10' W 123°05'5 9.6
2017-Oct-08 09:00N 46°11' W 123°12'710.2
2017-Oct-08 08:20N 46°09' W 123°22'3 9.8
2017-Oct-08 08:01N 46°11' W 123°25'5 9.9
2017-Oct-08 07:30N 46°15' W 123°27'5 9.5
2017-Oct-08 07:00N 46°15' W 123°34'510.6
2017-Oct-08 06:30N 46°15' W 123°41'611.1
2017-Oct-08 06:00N 46°12' W 123°48'5 9.2
2017-Oct-08 05:30N 46°12' W 123°55'510.8
2017-Oct-08 05:00N 46°15' W 124°01'4 8.8
2017-Oct-08 04:30N 46°14' W 124°07'5 9.6
2017-Oct-08 04:00N 46°12' W 124°13'6 9.1
2017-Oct-08 03:20N 46°12' W 124°22'3 9.6
2017-Oct-08 03:00N 46°14' W 124°25'5 9.7
2017-Oct-08 02:30N 46°17' W 124°31'5 9.6
2017-Oct-08 02:00N 46°20' W 124°37'510.0
2017-Oct-08 01:30N 46°24' W 124°40'5 9.7
2017-Oct-08 00:58N 46°29' W 124°43'510.8
2017-Oct-08 00:30N 46°34' W 124°45'510.9
2017-Oct-08 00:00N 46°39' W 124°48'511.0
2017-Oct-07 23:31N 46°44' W 124°51'612.4
2017-Oct-07 23:00N 46°50' W 124°54'612.4
2017-Oct-07 22:31N 46°55' W 124°58'811.2
2017-Oct-07 21:46N 47°03' W 125°01'7611.2
2017-Oct-07 14:59N 48°19' W 125°11'1010.7
2017-Oct-07 14:05N 48°27' W 125°05'111.2
2017-Oct-07 14:00N 48°28' W 125°04'510.5
2017-Oct-07 13:30N 48°31' W 124°57'611.4
2017-Oct-07 13:00N 48°31' W 124°49'611.1
2017-Oct-07 12:30N 48°30' W 124°40'510.8
2017-Oct-07 12:00N 48°28' W 124°33'510.6
2017-Oct-07 11:30N 48°26' W 124°25'510.3
2017-Oct-07 11:00N 48°24' W 124°18'510.4
2017-Oct-07 10:30N 48°22' W 124°11'610.3
2017-Oct-07 09:56N 48°20' W 124°03'1311.0
2017-Oct-07 08:44N 48°17' W 123°43'311.7
2017-Oct-07 08:30N 48°16' W 123°39'611.8
2017-Oct-07 08:00N 48°15' W 123°31'611.8
2017-Oct-07 07:29N 48°11' W 123°24'4 8.3
2017-Oct-07 07:00N 48°09' W 123°19'713.0
2017-Oct-07 06:30N 48°13' W 123°11'612.6
2017-Oct-07 06:00N 48°18' W 123°05'612.9
2017-Oct-07 05:30N 48°21' W 122°56'713.2
2017-Oct-07 05:00N 48°25' W 122°48'714.1
2017-Oct-07 04:30N 48°31' W 122°45'714.0
2017-Oct-07 04:00N 48°38' W 122°44'  
Track history (hours):
 
Tides and Currents Weather Stations Pressure Air Temp Water Temp Dewpoint Dewpoint Depression Visibility Wind Speed Wind Dir Waves Ship Positions

Sound Reliance

Owner: Intrepid Ship Management, Seattle, WA. More information available from US FCC via Universal Licensing System and Coast Guard Vessel Documentation Center.

Last reported at 2017-Oct-17 03:53 UTC. Time now 2017-Oct-17 04:31 UTC.
Position N 48°35' W 122°33'.

Type: Ship. MMSI: 338085216.

Date/timePositionNaut miles runAvg speedWind from/ knotsBaromVisibWave heightAir tempDewpointWater temp
2017-Oct-17 03:53N 48°35' W 122°33'0 0.0
2017-Oct-17 03:16N 48°35' W 122°33'0 0.0
2017-Oct-17 03:00N 48°35' W 122°33'0 0.0
2017-Oct-17 02:31N 48°35' W 122°33'0 0.0
2017-Oct-17 02:00N 48°35' W 122°33'0 0.0
2017-Oct-17 01:31N 48°35' W 122°33'0 0.0
2017-Oct-17 00:59N 48°35' W 122°33'0 0.0
2017-Oct-17 00:29N 48°35' W 122°33'0 0.0
2017-Oct-17 00:00N 48°35' W 122°33'0 0.0
2017-Oct-16 23:29N 48°35' W 122°33'0 0.1
2017-Oct-16 23:01N 48°35' W 122°33'0 0.3
2017-Oct-16 22:30N 48°36' W 122°32'0 0.1
2017-Oct-16 22:01N 48°35' W 122°32'0 0.0
2017-Oct-16 21:30N 48°35' W 122°32'0 0.1
2017-Oct-16 21:00N 48°36' W 122°32'0 0.0
2017-Oct-16 20:31N 48°35' W 122°32'0 0.0
2017-Oct-16 20:01N 48°36' W 122°32'0 0.1
2017-Oct-16 19:30N 48°36' W 122°32'0 0.1
2017-Oct-16 19:01N 48°36' W 122°33'1 2.5
2017-Oct-16 18:30N 48°37' W 122°34'4 8.7
2017-Oct-16 18:00N 48°35' W 122°40'612.1
2017-Oct-16 17:30N 48°30' W 122°44'611.3
2017-Oct-16 17:00N 48°24' W 122°48'611.1
2017-Oct-16 16:29N 48°21' W 122°55'611.8
2017-Oct-16 16:00N 48°18' W 123°02'611.2
2017-Oct-16 15:31N 48°15' W 123°09'510.5
2017-Oct-16 15:00N 48°12' W 123°16'510.1
2017-Oct-16 14:30N 48°10' W 123°22'8 8.1
2017-Oct-16 13:30N 48°13' W 123°34'4 7.5
2017-Oct-16 13:01N 48°13' W 123°39'4 7.1
2017-Oct-16 12:31N 48°13' W 123°45'4 7.3
2017-Oct-16 11:58N 48°13' W 123°50'3 7.0
2017-Oct-16 11:29N 48°13' W 123°56'5 7.9
2017-Oct-16 10:55N 48°15' W 124°02'3 8.1
2017-Oct-16 10:29N 48°17' W 124°07'4 8.0
2017-Oct-16 10:01N 48°18' W 124°12'4 8.0
2017-Oct-16 09:29N 48°20' W 124°17'4 8.3
2017-Oct-16 09:00N 48°22' W 124°23'4 8.2
2017-Oct-16 08:31N 48°23' W 124°28'4 8.1
2017-Oct-16 08:00N 48°25' W 124°34'4 8.2
2017-Oct-16 07:31N 48°27' W 124°40'4 8.2
2017-Oct-16 07:01N 48°28' W 124°45'5 9.0
2017-Oct-16 06:30N 48°28' W 124°52'5 9.1
2017-Oct-16 05:55N 48°28' W 125°00'510.9
2017-Oct-16 05:27N 48°24' W 125°04'69 8.0
2017-Oct-15 20:51N 47°15' W 125°07'3 7.5
2017-Oct-15 20:29N 47°12' W 125°06'4 7.7
2017-Oct-15 20:01N 47°09' W 125°04'7 7.7
2017-Oct-15 19:04N 47°02' W 124°60'2 7.8
2017-Oct-15 18:52N 47°00' W 124°59'3 7.9
2017-Oct-15 18:30N 46°58' W 124°57'4 7.8
2017-Oct-15 18:01N 46°54' W 124°56'4 7.7
2017-Oct-15 17:31N 46°51' W 124°54'4 8.1
2017-Oct-15 17:00N 46°47' W 124°52'4 8.2
2017-Oct-15 16:31N 46°43' W 124°50'4 8.2
2017-Oct-15 16:01N 46°39' W 124°48'4 8.1
2017-Oct-15 15:31N 46°35' W 124°46'4 8.1
2017-Oct-15 15:01N 46°31' W 124°44'9 8.3
2017-Oct-15 13:54N 46°23' W 124°38'511.7
2017-Oct-15 13:31N 46°20' W 124°33'611.7
2017-Oct-15 13:01N 46°17' W 124°25'612.6
2017-Oct-15 12:31N 46°14' W 124°18'611.9
2017-Oct-15 12:01N 46°13' W 124°09'611.9
2017-Oct-15 11:31N 46°15' W 124°01'612.7
2017-Oct-15 11:00N 46°11' W 123°54'5 9.5
2017-Oct-15 10:31N 46°13' W 123°47'713.9
2017-Oct-15 10:01N 46°16' W 123°38'713.4
2017-Oct-15 09:30N 46°16' W 123°29'611.9
2017-Oct-15 09:00N 46°11' W 123°26'611.7
2017-Oct-15 08:30N 46°09' W 123°18'612.3
2017-Oct-15 08:00N 46°11' W 123°10'611.4
2017-Oct-15 07:30N 46°09' W 123°02'611.3
2017-Oct-15 07:00N 46°06' W 122°56'5 9.9
2017-Oct-15 06:30N 46°01' W 122°52'611.3
2017-Oct-15 06:00N 45°56' W 122°48'611.7
2017-Oct-15 05:30N 45°51' W 122°47'612.1
2017-Oct-15 05:00N 45°45' W 122°46'612.1
2017-Oct-15 04:30N 45°39' W 122°47'4 7.4
2017-Oct-15 04:00N 45°35' W 122°46'1 2.6
2017-Oct-15 03:31N 45°34' W 122°44'0 0.0
2017-Oct-15 03:01N 45°34' W 122°44'0 0.0
2017-Oct-15 02:30N 45°34' W 122°44'0 0.0
2017-Oct-15 01:41N 45°34' W 122°44'0 0.0
2017-Oct-15 01:20N 45°34' W 122°44'0 0.1
2017-Oct-15 01:00N 45°34' W 122°44'0 0.1
2017-Oct-15 00:31N 45°34' W 122°44'0 0.0
2017-Oct-15 00:01N 45°34' W 122°44'0 0.0
2017-Oct-14 23:30N 45°34' W 122°44'0 0.1
2017-Oct-14 22:53N 45°34' W 122°44'0 0.1
2017-Oct-14 22:31N 45°34' W 122°44'0 0.1
2017-Oct-14 22:01N 45°34' W 122°44'0 0.1
2017-Oct-14 21:30N 45°34' W 122°44'0 0.1
2017-Oct-14 21:01N 45°34' W 122°44'0 0.1
2017-Oct-14 20:30N 45°34' W 122°44'0 0.0
2017-Oct-14 20:01N 45°34' W 122°44'0 0.1
2017-Oct-14 19:30N 45°34' W 122°44'0 0.0
2017-Oct-14 19:01N 45°34' W 122°44'0 0.0
2017-Oct-14 18:30N 45°34' W 122°44'0 0.1
2017-Oct-14 18:00N 45°34' W 122°44'0 0.1
2017-Oct-14 17:31N 45°34' W 122°44'0 0.1
2017-Oct-14 17:01N 45°34' W 122°44'0 0.0
2017-Oct-14 16:31N 45°34' W 122°44'0 0.1
2017-Oct-14 16:01N 45°34' W 122°44'0 0.0
2017-Oct-14 15:31N 45°34' W 122°44'0 0.1
2017-Oct-14 15:00N 45°34' W 122°44'0 0.0
2017-Oct-14 14:30N 45°34' W 122°44'0 0.1
2017-Oct-14 14:00N 45°34' W 122°44'0 0.0
2017-Oct-14 13:30N 45°34' W 122°44'0 0.0
2017-Oct-14 13:00N 45°34' W 122°44'0 0.1
2017-Oct-14 12:30N 45°34' W 122°44'0 0.0
2017-Oct-14 12:01N 45°34' W 122°44'0 0.0
2017-Oct-14 11:31N 45°34' W 122°44'0 0.0
2017-Oct-14 11:00N 45°34' W 122°44'0 0.0
2017-Oct-14 10:30N 45°34' W 122°44'0 0.1
2017-Oct-14 10:00N 45°34' W 122°44'0 0.0
2017-Oct-14 09:30N 45°34' W 122°44'0 0.1
2017-Oct-14 09:01N 45°34' W 122°44'0 0.0
2017-Oct-14 08:30N 45°34' W 122°44'0 0.0
2017-Oct-14 08:00N 45°34' W 122°44'0 0.0
2017-Oct-14 07:30N 45°34' W 122°44'0 0.7
2017-Oct-14 07:01N 45°34' W 122°44'3 6.6
2017-Oct-14 06:30N 45°37' W 122°47'4 7.8
2017-Oct-14 06:00N 45°41' W 122°47'510.8
2017-Oct-14 05:30N 45°46' W 122°46'510.5
2017-Oct-14 05:00N 45°51' W 122°47'610.8
2017-Oct-14 04:27N 45°57' W 122°49'511.0
2017-Oct-14 04:00N 46°01' W 122°52'6 9.9
2017-Oct-14 03:21N 46°06' W 122°58'410.8
2017-Oct-14 03:01N 46°09' W 123°02'510.7
2017-Oct-14 02:30N 46°11' W 123°09'510.8
2017-Oct-14 02:00N 46°09' W 123°16'510.3
2017-Oct-14 01:30N 46°09' W 123°24'5 9.7
2017-Oct-14 01:00N 46°14' W 123°26'5 9.2
2017-Oct-14 00:31N 46°16' W 123°32'611.2
2017-Oct-14 00:00N 46°15' W 123°40'611.2
2017-Oct-13 23:31N 46°13' W 123°47'5 9.8
2017-Oct-13 23:00N 46°11' W 123°54'510.8
2017-Oct-13 22:30N 46°15' W 123°60'5 9.1
2017-Oct-13 22:00N 46°14' W 124°06'7 9.5
2017-Oct-13 21:15N 46°10' W 124°15'2 6.6
2017-Oct-13 21:00N 46°11' W 124°17'4 7.9
2017-Oct-13 20:30N 46°13' W 124°23'510.0
2017-Oct-13 20:00N 46°15' W 124°28'510.6
2017-Oct-13 19:30N 46°19' W 124°35'5 9.7
2017-Oct-13 19:01N 46°22' W 124°39'6 9.8
2017-Oct-13 18:21N 46°29' W 124°42'3 9.9
2017-Oct-13 18:00N 46°32' W 124°44'810.4
2017-Oct-13 17:14N 46°39' W 124°48'210.6
2017-Oct-13 17:00N 46°42' W 124°49'510.1
2017-Oct-13 16:30N 46°46' W 124°51'510.0
2017-Oct-13 16:00N 46°51' W 124°54'510.4
2017-Oct-13 15:30N 46°56' W 124°57'9510.6
2017-Oct-13 06:33N 48°31' W 125°00'112.1
2017-Oct-13 06:28N 48°31' W 124°59'612.4
2017-Oct-13 06:00N 48°31' W 124°50'611.9
2017-Oct-13 05:30N 48°30' W 124°41'611.9
2017-Oct-13 05:00N 48°27' W 124°33'611.9
2017-Oct-13 04:30N 48°25' W 124°25'611.5
2017-Oct-13 04:00N 48°23' W 124°17'611.8
2017-Oct-13 03:30N 48°20' W 124°09'1011.4
2017-Oct-13 02:36N 48°17' W 123°54'111.4
2017-Oct-13 02:30N 48°17' W 123°52'612.5
2017-Oct-13 02:00N 48°16' W 123°43'712.9
2017-Oct-13 01:30N 48°15' W 123°33'612.1
2017-Oct-13 00:59N 48°12' W 123°25'4 8.9
2017-Oct-13 00:30N 48°10' W 123°20'713.0
2017-Oct-12 23:56N 48°14' W 123°11'612.7
2017-Oct-12 23:25N 48°18' W 123°03'512.6
2017-Oct-12 23:00N 48°21' W 122°57'612.7
2017-Oct-12 22:30N 48°25' W 122°49'612.3
2017-Oct-12 22:00N 48°30' W 122°45'612.5
2017-Oct-12 21:30N 48°36' W 122°45'611.6
2017-Oct-12 20:59N 48°42' W 122°44'511.2
2017-Oct-12 20:30N 48°48' W 122°44'2 0.3
2017-Oct-12 13:33N 48°50' W 122°43'0 0.0
2017-Oct-12 13:09N 48°50' W 122°43'0 0.0
2017-Oct-12 08:03N 48°50' W 122°43'0 0.0
2017-Oct-12 05:03N 48°50' W 122°43'0 0.0
2017-Oct-12 02:33N 48°50' W 122°43'0 0.0
2017-Oct-12 02:30N 48°50' W 122°43'0 0.0
2017-Oct-12 01:57N 48°50' W 122°43'0 0.0
2017-Oct-12 01:03N 48°50' W 122°43'0 0.0
2017-Oct-12 00:33N 48°50' W 122°43'0 0.0
2017-Oct-12 00:21N 48°50' W 122°43'0 0.0
2017-Oct-11 23:45N 48°50' W 122°43'0 0.0
2017-Oct-11 23:15N 48°50' W 122°43'0 0.0
2017-Oct-11 22:57N 48°50' W 122°43'0 0.0
2017-Oct-11 22:09N 48°50' W 122°43'0 0.0
2017-Oct-11 21:45N 48°50' W 122°43'0 0.0
2017-Oct-11 21:15N 48°50' W 122°43'0 0.0
2017-Oct-11 20:57N 48°50' W 122°43'0 0.0
2017-Oct-11 20:29N 48°50' W 122°43'0 0.9
2017-Oct-11 19:58N 48°49' W 122°44'4 8.1
2017-Oct-11 19:30N 48°46' W 122°45'612.3
2017-Oct-11 19:00N 48°39' W 122°43'612.4
2017-Oct-11 18:30N 48°33' W 122°45'612.7
2017-Oct-11 18:00N 48°27' W 122°45'713.0
2017-Oct-11 17:29N 48°22' W 122°52'612.8
2017-Oct-11 17:00N 48°19' W 122°60'112 5.4
2017-Oct-10 20:17N 46°60' W 124°59'4 8.5
2017-Oct-10 19:52N 46°57' W 124°57'3 8.3
2017-Oct-10 19:30N 46°54' W 124°55'4 8.4
2017-Oct-10 19:00N 46°50' W 124°54'4 8.1
2017-Oct-10 18:30N 46°46' W 124°52'4 8.0
2017-Oct-10 18:00N 46°42' W 124°50'4 7.8
2017-Oct-10 17:30N 46°39' W 124°48'4 7.8
2017-Oct-10 17:00N 46°35' W 124°46'4 7.6
2017-Oct-10 16:31N 46°31' W 124°44'4 7.6
2017-Oct-10 16:00N 46°28' W 124°42'4 7.7
2017-Oct-10 15:26N 46°24' W 124°40'3 7.2
2017-Oct-10 15:00N 46°21' W 124°38'8 7.8
2017-Oct-10 14:00N 46°17' W 124°28'4 8.0
2017-Oct-10 13:30N 46°15' W 124°23'4 8.0
2017-Oct-10 13:00N 46°13' W 124°18'7 9.5
2017-Oct-10 12:15N 46°14' W 124°08'311.2
2017-Oct-10 12:00N 46°15' W 124°04'5 9.3
2017-Oct-10 11:30N 46°13' W 123°58'5 9.4
2017-Oct-10 11:00N 46°12' W 123°52'5 9.1
2017-Oct-10 10:31N 46°13' W 123°46'510.6
2017-Oct-10 10:00N 46°16' W 123°39'811.3
2017-Oct-10 09:18N 46°16' W 123°27'512.4
2017-Oct-10 08:52N 46°10' W 123°25'512.8
2017-Oct-10 08:30N 46°09' W 123°19'714.1
2017-Oct-10 08:00N 46°11' W 123°10'713.6
2017-Oct-10 07:31N 46°08' W 123°01'713.3
2017-Oct-10 07:00N 46°04' W 122°53'612.9
2017-Oct-10 06:30N 45°59' W 122°50'813.0
2017-Oct-10 05:56N 45°51' W 122°47'512.4
2017-Oct-10 05:30N 45°46' W 122°46'612.8
2017-Oct-10 05:00N 45°40' W 122°46'4 8.3
2017-Oct-10 04:30N 45°36' W 122°46'2 3.3
2017-Oct-10 03:51N 45°34' W 122°44'0 0.1
2017-Oct-10 03:28N 45°34' W 122°44'0 0.0
2017-Oct-10 02:55N 45°34' W 122°44'0 0.0
2017-Oct-10 02:19N 45°34' W 122°44'0 0.0
2017-Oct-10 01:55N 45°34' W 122°44'0 0.1
2017-Oct-10 01:10N 45°34' W 122°44'0 0.2
2017-Oct-10 00:58N 45°34' W 122°44'0 0.0
2017-Oct-10 00:28N 45°34' W 122°44'0 0.1
2017-Oct-09 23:58N 45°34' W 122°44'0 0.1
2017-Oct-09 23:28N 45°34' W 122°44'0 0.1
2017-Oct-09 22:52N 45°34' W 122°44'0 0.1
2017-Oct-09 22:28N 45°34' W 122°44'0 0.0
2017-Oct-09 21:55N 45°34' W 122°44'0 0.1
2017-Oct-09 21:22N 45°34' W 122°44'0 0.1
2017-Oct-09 20:37N 45°34' W 122°44'0 0.3
2017-Oct-09 20:28N 45°34' W 122°44'0 0.0
2017-Oct-09 19:58N 45°34' W 122°44'0 0.1
2017-Oct-09 19:28N 45°34' W 122°44'0 0.1
2017-Oct-09 18:55N 45°34' W 122°44'0 0.0
2017-Oct-09 18:28N 45°34' W 122°44'0 0.0
2017-Oct-09 17:52N 45°34' W 122°44'0 0.0
2017-Oct-09 17:22N 45°34' W 122°44'0 0.1
2017-Oct-09 16:55N 45°34' W 122°44'0 0.1
2017-Oct-09 16:25N 45°34' W 122°44'0 0.0
2017-Oct-09 15:58N 45°34' W 122°44'0 0.1
2017-Oct-09 15:22N 45°34' W 122°44'0 0.0
2017-Oct-09 14:58N 45°34' W 122°44'0 0.1
2017-Oct-09 14:28N 45°34' W 122°44'0 0.1
2017-Oct-09 13:58N 45°34' W 122°44'0 0.1
2017-Oct-09 13:25N 45°34' W 122°44'0 0.1
2017-Oct-09 12:55N 45°34' W 122°44'0 0.1
2017-Oct-09 12:25N 45°34' W 122°44'0 0.1
2017-Oct-09 11:58N 45°34' W 122°44'0 0.0
2017-Oct-09 11:25N 45°34' W 122°44'0 0.0
2017-Oct-09 10:58N 45°34' W 122°44'0 0.0
2017-Oct-09 10:01N 45°34' W 122°44'0 0.0
2017-Oct-09 09:58N 45°34' W 122°44'0 0.0
2017-Oct-09 09:13N 45°34' W 122°44'0 0.0
2017-Oct-09 08:58N 45°34' W 122°44'0 0.0
2017-Oct-09 08:28N 45°34' W 122°44'0 0.0
2017-Oct-09 07:49N 45°34' W 122°44'0 0.0
2017-Oct-09 07:22N 45°34' W 122°44'0 0.0
2017-Oct-09 06:55N 45°34' W 122°44'0 0.0
2017-Oct-09 06:25N 45°34' W 122°44'0 0.1
2017-Oct-09 05:58N 45°34' W 122°44'0 0.1
2017-Oct-09 05:28N 45°34' W 122°44'0 0.0
2017-Oct-09 04:55N 45°34' W 122°44'0 0.0
2017-Oct-09 04:28N 45°34' W 122°44'0 0.1
2017-Oct-09 03:55N 45°34' W 122°44'0 0.1
2017-Oct-09 03:28N 45°34' W 122°44'0 0.0
2017-Oct-09 02:55N 45°34' W 122°44'0 0.0
2017-Oct-09 02:28N 45°34' W 122°44'0 0.0
2017-Oct-09 01:55N 45°34' W 122°44'0 0.0
2017-Oct-09 01:25N 45°34' W 122°44'0 0.0
2017-Oct-09 00:49N 45°34' W 122°44'0 0.0
2017-Oct-09 00:31N 45°34' W 122°44'0 0.0
2017-Oct-08 23:58N 45°34' W 122°44'0 0.1
2017-Oct-08 23:31N 45°34' W 122°44'0 0.0
2017-Oct-08 22:55N 45°34' W 122°44'0 0.1
2017-Oct-08 22:13N 45°34' W 122°44'0 0.0
2017-Oct-08 21:52N 45°34' W 122°44'0 0.0
2017-Oct-08 21:31N 45°34' W 122°44'0 0.0
2017-Oct-08 21:01N 45°34' W 122°44'0 0.0
2017-Oct-08 20:31N 45°34' W 122°44'0 0.0
2017-Oct-08 19:58N 45°34' W 122°44'0 0.0
2017-Oct-08 19:25N 45°34' W 122°44'0 0.0
2017-Oct-08 18:55N 45°34' W 122°44'0 0.0
2017-Oct-08 18:25N 45°34' W 122°44'0 0.0
2017-Oct-08 17:55N 45°34' W 122°44'0 0.0
2017-Oct-08 17:28N 45°34' W 122°44'0 0.0
2017-Oct-08 16:55N 45°34' W 122°44'0 0.0
2017-Oct-08 16:25N 45°34' W 122°44'0 0.0
2017-Oct-08 15:55N 45°34' W 122°44'0 0.0
2017-Oct-08 15:30N 45°34' W 122°44'0 0.0
2017-Oct-08 15:00N 45°34' W 122°44'0 0.0
2017-Oct-08 14:25N 45°34' W 122°44'0 0.4
2017-Oct-08 14:00N 45°34' W 122°44'3 5.6
2017-Oct-08 13:30N 45°36' W 122°47'4 7.8
2017-Oct-08 13:00N 45°40' W 122°46'5 9.7
2017-Oct-08 12:30N 45°45' W 122°46'510.1
2017-Oct-08 12:00N 45°50' W 122°48'510.1
2017-Oct-08 11:30N 45°55' W 122°49'510.0
2017-Oct-08 11:00N 45°59' W 122°51'5 9.9
2017-Oct-08 10:30N 46°04' W 122°53'510.0
2017-Oct-08 10:00N 46°07' W 122°59'510.5
2017-Oct-08 09:30N 46°10' W 123°05'5 9.6
2017-Oct-08 09:00N 46°11' W 123°12'710.2
2017-Oct-08 08:20N 46°09' W 123°22'3 9.8
2017-Oct-08 08:01N 46°11' W 123°25'5 9.9
2017-Oct-08 07:30N 46°15' W 123°27'5 9.5
2017-Oct-08 07:00N 46°15' W 123°34'510.6
2017-Oct-08 06:30N 46°15' W 123°41'611.1
2017-Oct-08 06:00N 46°12' W 123°48'5 9.2
2017-Oct-08 05:30N 46°12' W 123°55'510.8
2017-Oct-08 05:00N 46°15' W 124°01'4 8.8
2017-Oct-08 04:30N 46°14' W 124°07'5 9.6
2017-Oct-08 04:00N 46°12' W 124°13'6 9.1
2017-Oct-08 03:20N 46°12' W 124°22'3 9.6
2017-Oct-08 03:00N 46°14' W 124°25'5 9.7
2017-Oct-08 02:30N 46°17' W 124°31'5 9.6
2017-Oct-08 02:00N 46°20' W 124°37'510.0
2017-Oct-08 01:30N 46°24' W 124°40'5 9.7
2017-Oct-08 00:58N 46°29' W 124°43'510.8
2017-Oct-08 00:30N 46°34' W 124°45'510.9
2017-Oct-08 00:00N 46°39' W 124°48'511.0
2017-Oct-07 23:31N 46°44' W 124°51'612.4
2017-Oct-07 23:00N 46°50' W 124°54'612.4
2017-Oct-07 22:31N 46°55' W 124°58'811.2
2017-Oct-07 21:46N 47°03' W 125°01'7611.2
2017-Oct-07 14:59N 48°19' W 125°11'1010.7
2017-Oct-07 14:05N 48°27' W 125°05'111.2
2017-Oct-07 14:00N 48°28' W 125°04'510.5
2017-Oct-07 13:30N 48°31' W 124°57'611.4
2017-Oct-07 13:00N 48°31' W 124°49'611.1
2017-Oct-07 12:30N 48°30' W 124°40'510.8
2017-Oct-07 12:00N 48°28' W 124°33'510.6
2017-Oct-07 11:30N 48°26' W 124°25'510.3
2017-Oct-07 11:00N 48°24' W 124°18'510.4
2017-Oct-07 10:30N 48°22' W 124°11'610.3
2017-Oct-07 09:56N 48°20' W 124°03'1311.0
2017-Oct-07 08:44N 48°17' W 123°43'311.7
2017-Oct-07 08:30N 48°16' W 123°39'611.8
2017-Oct-07 08:00N 48°15' W 123°31'611.8
2017-Oct-07 07:29N 48°11' W 123°24'4 8.3
2017-Oct-07 07:00N 48°09' W 123°19'713.0
2017-Oct-07 06:30N 48°13' W 123°11'612.6
2017-Oct-07 06:00N 48°18' W 123°05'612.9
2017-Oct-07 05:30N 48°21' W 122°56'713.2
2017-Oct-07 05:00N 48°25' W 122°48'714.1
2017-Oct-07 04:30N 48°31' W 122°45'714.0
2017-Oct-07 04:00N 48°38' W 122°44'  

Dump ship's entire track history